LTBL/IGI METAR and TAF weather

Enter ICAO airport designator
Station Type Date Time Source
LTBL METAR 2024/04/23 02:50 UTC NOAA

LTBL 230250Z VRB02KT CAVOK 19/12 Q1015 NOSIG RMK RWY17 03005KT 330V100


Station Type Date Time Source
LTBL Decoded METAR 2024/04/23 02:50 UTC NOAA

Izmir / Cigli, Turkey (LTBL) 38-30N 027-01E 5M
Apr 22, 2024 - 10:50 PM EDT / 2024.04.23 0250 UTC
Wind: Variable at 2 MPH (2 KT):0
Visibility: greater than 7 mile(s):0
Temperature: 66 F (19 C)
Dew Point: 53 F (12 C)
Relative Humidity: 63%
Pressure (altimeter): 29.97 in. Hg (1015 hPa)
ob: LTBL 230250Z VRB02KT CAVOK 19/12 Q1015 NOSIG RMK RWY17 03005KT 330V100
cycle: 3

Station Type Date Time Source
LTBL TAF UTC NOAA

Error!

Example: see airport list